sensor_id;sensor_type;location;lat;lon;timestamp;pressure;altitude;pressure_sealevel;temperature;humidity
61337;BME280;47212;41.326;2.104;2023-09-12T00:03:19;101169.28;;;24.47;79.39
61337;BME280;47212;41.326;2.104;2023-09-12T00:08:33;101167.19;;;24.44;79.52
61337;BME280;47212;41.326;2.104;2023-09-12T00:13:42;101167.88;;;24.41;79.51
61337;BME280;47212;41.326;2.104;2023-09-12T00:18:50;101164.28;;;24.40;79.87
61337;BME280;47212;41.326;2.104;2023-09-12T00:24:15;101153.97;;;24.41;79.83
61337;BME280;47212;41.326;2.104;2023-09-12T00:29:22;101140.75;;;24.38;79.31
61337;BME280;47212;41.326;2.104;2023-09-12T00:34:30;101136.34;;;24.37;79.40
61337;BME280;47212;41.326;2.104;2023-09-12T00:39:39;101135.88;;;24.35;79.70
61337;BME280;47212;41.326;2.104;2023-09-12T00:44:45;101142.94;;;24.32;79.83
61337;BME280;47212;41.326;2.104;2023-09-12T00:49:50;101135.75;;;24.31;79.63
61337;BME280;47212;41.326;2.104;2023-09-12T00:54:57;101131.47;;;24.34;79.61
61337;BME280;47212;41.326;2.104;2023-09-12T01:05:19;101123.34;;;24.29;79.95
61337;BME280;47212;41.326;2.104;2023-09-12T01:10:30;101127.09;;;24.24;79.99
61337;BME280;47212;41.326;2.104;2023-09-12T01:15:41;101125.00;;;24.21;79.58
61337;BME280;47212;41.326;2.104;2023-09-12T01:21:28;101118.38;;;24.13;79.63
61337;BME280;47212;41.326;2.104;2023-09-12T01:26:59;101132.50;;;24.08;79.68
61337;BME280;47212;41.326;2.104;2023-09-12T01:32:10;101124.88;;;24.05;79.57
61337;BME280;47212;41.326;2.104;2023-09-12T01:37:16;101116.88;;;24.04;79.80
61337;BME280;47212;41.326;2.104;2023-09-12T01:42:31;101115.13;;;23.99;80.05
61337;BME280;47212;41.326;2.104;2023-09-12T01:47:39;101119.06;;;23.98;79.91
61337;BME280;47212;41.326;2.104;2023-09-12T01:52:44;101130.03;;;23.95;79.93
61337;BME280;47212;41.326;2.104;2023-09-12T01:57:55;101122.88;;;23.94;79.77
61337;BME280;47212;41.326;2.104;2023-09-12T02:03:03;101119.97;;;23.90;79.00
61337;BME280;47212;41.326;2.104;2023-09-12T02:08:07;101111.63;;;23.90;79.36
61337;BME280;47212;41.326;2.104;2023-09-12T02:13:12;101122.75;;;23.90;78.89
61337;BME280;47212;41.326;2.104;2023-09-12T02:18:29;101120.44;;;23.92;78.65
61337;BME280;47212;41.326;2.104;2023-09-12T02:23:36;101104.56;;;23.93;78.52
61337;BME280;47212;41.326;2.104;2023-09-12T02:31:20;101110.00;;;23.89;78.26
61337;BME280;47212;41.326;2.104;2023-09-12T02:36:29;101130.59;;;23.88;78.29
61337;BME280;47212;41.326;2.104;2023-09-12T02:41:39;101122.97;;;23.85;77.72
61337;BME280;47212;41.326;2.104;2023-09-12T02:46:47;101120.03;;;23.81;77.88
61337;BME280;47212;41.326;2.104;2023-09-12T02:51:57;101114.34;;;23.78;77.96
61337;BME280;47212;41.326;2.104;2023-09-12T02:57:04;101113.88;;;23.76;77.55
61337;BME280;47212;41.326;2.104;2023-09-12T03:02:16;101107.38;;;23.72;77.88
61337;BME280;47212;41.326;2.104;2023-09-12T03:07:29;101117.22;;;23.69;77.62
61337;BME280;47212;41.326;2.104;2023-09-12T03:12:41;101109.09;;;23.64;77.78
61337;BME280;47212;41.326;2.104;2023-09-12T03:18:09;101118.13;;;23.61;77.48
61337;BME280;47212;41.326;2.104;2023-09-12T03:23:15;101113.72;;;23.60;77.75
61337;BME280;47212;41.326;2.104;2023-09-12T03:28:22;101127.28;;;23.62;77.94
61337;BME280;47212;41.326;2.104;2023-09-12T03:33:26;101123.34;;;23.63;77.48
61337;BME280;47212;41.326;2.104;2023-09-12T03:38:29;101117.31;;;23.61;77.65
61337;BME280;47212;41.326;2.104;2023-09-12T03:44:01;101119.63;;;23.59;77.32
61337;BME280;47212;41.326;2.104;2023-09-12T03:49:08;101132.56;;;23.55;77.45
61337;BME280;47212;41.326;2.104;2023-09-12T03:54:16;101131.59;;;23.50;77.37
61337;BME280;47212;41.326;2.104;2023-09-12T03:59:22;101132.94;;;23.44;77.77
61337;BME280;47212;41.326;2.104;2023-09-12T04:04:29;101133.63;;;23.41;77.79
61337;BME280;47212;41.326;2.104;2023-09-12T04:09:38;101147.00;;;23.39;78.00
61337;BME280;47212;41.326;2.104;2023-09-12T04:14:40;101149.31;;;23.37;77.51
61337;BME280;47212;41.326;2.104;2023-09-12T04:19:43;101146.75;;;23.32;77.59
61337;BME280;47212;41.326;2.104;2023-09-12T04:24:45;101144.16;;;23.27;77.69
61337;BME280;47212;41.326;2.104;2023-09-12T04:29:47;101148.78;;;23.23;77.46
61337;BME280;47212;41.326;2.104;2023-09-12T04:34:50;101147.81;;;23.19;77.67
61337;BME280;47212;41.326;2.104;2023-09-12T04:39:53;101147.34;;;23.17;77.52
61337;BME280;47212;41.326;2.104;2023-09-12T04:44:56;101140.97;;;23.16;77.45
61337;BME280;47212;41.326;2.104;2023-09-12T04:49:58;101146.06;;;23.14;77.38
61337;BME280;47212;41.326;2.104;2023-09-12T04:55:02;101138.06;;;23.13;77.38
61337;BME280;47212;41.326;2.104;2023-09-12T05:00:06;101158.78;;;23.15;77.16
61337;BME280;47212;41.326;2.104;2023-09-12T05:05:09;101164.69;;;23.14;76.98
61337;BME280;47212;41.326;2.104;2023-09-12T05:10:12;101167.47;;;23.14;76.69
61337;BME280;47212;41.326;2.104;2023-09-12T05:15:14;101168.94;;;23.11;76.26
61337;BME280;47212;41.326;2.104;2023-09-12T05:20:17;101172.88;;;23.10;75.93
61337;BME280;47212;41.326;2.104;2023-09-12T05:25:19;101176.66;;;23.06;75.87
61337;BME280;47212;41.326;2.104;2023-09-12T05:30:22;101181.94;;;22.99;75.42
61337;BME280;47212;41.326;2.104;2023-09-12T05:35:24;101189.31;;;22.95;75.58
61337;BME280;47212;41.326;2.104;2023-09-12T05:40:28;101198.31;;;22.92;75.24
61337;BME280;47212;41.326;2.104;2023-09-12T05:45:31;101194.38;;;22.93;75.37
61337;BME280;47212;41.326;2.104;2023-09-12T05:50:39;101196.00;;;22.94;75.00
61337;BME280;47212;41.326;2.104;2023-09-12T05:55:41;101196.47;;;22.96;75.00
61337;BME280;47212;41.326;2.104;2023-09-12T06:00:43;101200.22;;;23.00;74.91
61337;BME280;47212;41.326;2.104;2023-09-12T06:05:46;101211.00;;;23.01;74.68
61337;BME280;47212;41.326;2.104;2023-09-12T06:10:48;101213.91;;;23.05;74.24
61337;BME280;47212;41.326;2.104;2023-09-12T06:15:50;101220.41;;;23.09;73.99
61337;BME280;47212;41.326;2.104;2023-09-12T06:20:53;101230.84;;;23.12;73.74
61337;BME280;47212;41.326;2.104;2023-09-12T06:25:55;101232.63;;;23.16;73.13
61337;BME280;47212;41.326;2.104;2023-09-12T06:30:57;101239.13;;;23.20;72.95
61337;BME280;47212;41.326;2.104;2023-09-12T06:36:03;101247.13;;;23.22;72.60
61337;BME280;47212;41.326;2.104;2023-09-12T06:41:05;101257.56;;;23.25;72.60
61337;BME280;47212;41.326;2.104;2023-09-12T06:46:07;101240.72;;;23.30;72.46
61337;BME280;47212;41.326;2.104;2023-09-12T06:51:10;101250.97;;;23.38;72.33
61337;BME280;47212;41.326;2.104;2023-09-12T06:56:20;101251.25;;;23.45;72.04
61337;BME280;47212;41.326;2.104;2023-09-12T07:01:23;101252.53;;;23.57;72.13
61337;BME280;47212;41.326;2.104;2023-09-12T07:06:25;101240.72;;;23.80;71.43
61337;BME280;47212;41.326;2.104;2023-09-12T07:11:28;101236.50;;;24.37;69.96
61337;BME280;47212;41.326;2.104;2023-09-12T07:16:31;101254.75;;;24.59;69.32
61337;BME280;47212;41.326;2.104;2023-09-12T07:21:33;101258.09;;;24.52;69.71
61337;BME280;47212;41.326;2.104;2023-09-12T07:26:36;101266.81;;;24.63;69.54
61337;BME280;47212;41.326;2.104;2023-09-12T07:31:39;101267.59;;;25.08;68.48
61337;BME280;47212;41.326;2.104;2023-09-12T07:36:42;101261.91;;;25.54;67.16
61337;BME280;47212;41.326;2.104;2023-09-12T07:41:44;101268.09;;;25.99;66.14
61337;BME280;47212;41.326;2.104;2023-09-12T07:46:46;101264.31;;;26.48;64.99
61337;BME280;47212;41.326;2.104;2023-09-12T07:51:48;101279.66;;;26.85;64.50
61337;BME280;47212;41.326;2.104;2023-09-12T07:56:50;101290.44;;;27.15;63.20
61337;BME280;47212;41.326;2.104;2023-09-12T08:01:52;101298.97;;;27.38;62.71
61337;BME280;47212;41.326;2.104;2023-09-12T08:06:55;101283.88;;;27.58;62.24
61337;BME280;47212;41.326;2.104;2023-09-12T08:11:59;101289.81;;;27.88;61.55
61337;BME280;47212;41.326;2.104;2023-09-12T08:17:01;101287.97;;;28.15;60.60
61337;BME280;47212;41.326;2.104;2023-09-12T08:22:04;101286.22;;;28.26;60.45
61337;BME280;47212;41.326;2.104;2023-09-12T08:27:07;101292.53;;;28.42;60.35
61337;BME280;47212;41.326;2.104;2023-09-12T08:32:12;101284.56;;;28.64;59.74
61337;BME280;47212;41.326;2.104;2023-09-12T08:37:14;101284.97;;;28.85;58.75
61337;BME280;47212;41.326;2.104;2023-09-12T08:42:16;101288.66;;;28.89;58.88
61337;BME280;47212;41.326;2.104;2023-09-12T08:47:19;101277.63;;;29.00;58.54
61337;BME280;47212;41.326;2.104;2023-09-12T08:52:23;101277.91;;;29.17;58.25
61337;BME280;47212;41.326;2.104;2023-09-12T08:57:26;101279.44;;;29.38;58.25
61337;BME280;47212;41.326;2.104;2023-09-12T09:02:30;101264.50;;;29.53;58.37
61337;BME280;47212;41.326;2.104;2023-09-12T09:07:36;101268.97;;;29.35;57.79
61337;BME280;47212;41.326;2.104;2023-09-12T09:12:40;101285.91;;;28.93;58.86
61337;BME280;47212;41.326;2.104;2023-09-12T09:17:42;101283.22;;;28.58;59.18
61337;BME280;47212;41.326;2.104;2023-09-12T09:22:59;101283.69;;;28.40;59.24
61337;BME280;47212;41.326;2.104;2023-09-12T09:28:05;101263.66;;;28.38;59.94
61337;BME280;47212;41.326;2.104;2023-09-12T09:33:08;101261.03;;;28.26;60.52
61337;BME280;47212;41.326;2.104;2023-09-12T09:38:10;101273.53;;;28.13;60.12
61337;BME280;47212;41.326;2.104;2023-09-12T09:43:21;101284.28;;;27.91;60.30
61337;BME280;47212;41.326;2.104;2023-09-12T09:48:25;101282.72;;;27.75;60.45
61337;BME280;47212;41.326;2.104;2023-09-12T09:53:31;101273.69;;;27.66;61.51
61337;BME280;47212;41.326;2.104;2023-09-12T09:58:56;101261.63;;;27.62;61.95
61337;BME280;47212;41.326;2.104;2023-09-12T10:04:00;101273.34;;;27.51;60.95
61337;BME280;47212;41.326;2.104;2023-09-12T10:09:11;101267.50;;;27.41;60.45
61337;BME280;47212;41.326;2.104;2023-09-12T10:14:15;101265.44;;;27.38;63.21
61337;BME280;47212;41.326;2.104;2023-09-12T10:19:37;101265.72;;;27.33;63.37
61337;BME280;47212;41.326;2.104;2023-09-12T10:24:42;101270.78;;;27.27;63.72
61337;BME280;47212;41.326;2.104;2023-09-12T10:29:45;101276.28;;;27.23;63.56
61337;BME280;47212;41.326;2.104;2023-09-12T10:34:51;101287.47;;;27.23;64.96
61337;BME280;47212;41.326;2.104;2023-09-12T10:39:55;101289.63;;;27.14;66.73
61337;BME280;47212;41.326;2.104;2023-09-12T10:44:59;101297.38;;;27.37;66.03
61337;BME280;47212;41.326;2.104;2023-09-12T10:50:03;101305.78;;;27.87;65.17
61337;BME280;47212;41.326;2.104;2023-09-12T10:55:06;101299.47;;;28.48;63.52
61337;BME280;47212;41.326;2.104;2023-09-12T11:00:10;101305.66;;;29.00;62.77
61337;BME280;47212;41.326;2.104;2023-09-12T11:10:31;101302.78;;;29.19;61.75
61337;BME280;47212;41.326;2.104;2023-09-12T11:15:36;101315.13;;;29.41;60.44
61337;BME280;47212;41.326;2.104;2023-09-12T11:20:52;101315.13;;;29.41;58.81
61337;BME280;47212;41.326;2.104;2023-09-12T11:26:07;101315.41;;;29.55;58.34
61337;BME280;47212;41.326;2.104;2023-09-12T11:31:09;101302.72;;;29.65;58.10
61337;BME280;47212;41.326;2.104;2023-09-12T11:36:18;101309.03;;;29.85;56.63
61337;BME280;47212;41.326;2.104;2023-09-12T11:41:39;101303.38;;;30.11;54.34
61337;BME280;47212;41.326;2.104;2023-09-12T11:46:42;101301.69;;;30.36;55.53
61337;BME280;47212;41.326;2.104;2023-09-12T11:51:52;101298.78;;;30.29;56.75
61337;BME280;47212;41.326;2.104;2023-09-12T11:56:55;101292.69;;;30.24;55.72
61337;BME280;47212;41.326;2.104;2023-09-12T12:02:06;101293.69;;;30.38;55.11
61337;BME280;47212;41.326;2.104;2023-09-12T12:07:09;101290.81;;;30.65;55.60
61337;BME280;47212;41.326;2.104;2023-09-12T12:12:13;101285.94;;;30.62;56.02
61337;BME280;47212;41.326;2.104;2023-09-12T12:17:16;101292.56;;;30.80;56.77
61337;BME280;47212;41.326;2.104;2023-09-12T12:22:18;101281.66;;;30.75;54.33
61337;BME280;47212;41.326;2.104;2023-09-12T12:27:21;101280.22;;;30.92;55.01
61337;BME280;47212;41.326;2.104;2023-09-12T12:32:23;101274.78;;;30.69;55.56
61337;BME280;47212;41.326;2.104;2023-09-12T12:37:29;101265.63;;;30.38;56.71
61337;BME280;47212;41.326;2.104;2023-09-12T12:42:38;101264.69;;;30.31;57.75
61337;BME280;47212;41.326;2.104;2023-09-12T12:47:59;101257.44;;;29.96;57.66
61337;BME280;47212;41.326;2.104;2023-09-12T12:53:02;101249.72;;;30.20;60.91
61337;BME280;47212;41.326;2.104;2023-09-12T12:58:04;101245.84;;;30.31;61.06
61337;BME280;47212;41.326;2.104;2023-09-12T13:03:07;101248.81;;;30.08;61.61
61337;BME280;47212;41.326;2.104;2023-09-12T13:08:09;101252.75;;;30.04;60.80
61337;BME280;47212;41.326;2.104;2023-09-12T13:13:12;101251.16;;;30.03;61.21
61337;BME280;47212;41.326;2.104;2023-09-12T13:18:14;101244.75;;;30.06;60.85
61337;BME280;47212;41.326;2.104;2023-09-12T13:23:17;101227.22;;;30.16;60.03
61337;BME280;47212;41.326;2.104;2023-09-12T13:28:19;101229.97;;;30.09;60.39
61337;BME280;47212;41.326;2.104;2023-09-12T13:33:22;101222.38;;;30.13;60.52
61337;BME280;47212;41.326;2.104;2023-09-12T13:38:24;101236.03;;;30.15;60.28
61337;BME280;47212;41.326;2.104;2023-09-12T13:43:27;101240.06;;;30.17;60.98
61337;BME280;47212;41.326;2.104;2023-09-12T13:48:30;101238.66;;;30.00;61.52
61337;BME280;47212;41.326;2.104;2023-09-12T13:53:32;101240.72;;;29.47;63.56
61337;BME280;47212;41.326;2.104;2023-09-12T13:58:34;101236.56;;;29.11;64.95
61337;BME280;47212;41.326;2.104;2023-09-12T14:03:47;101235.56;;;28.77;66.34
61337;BME280;47212;41.326;2.104;2023-09-12T14:08:52;101227.66;;;28.60;67.03
61337;BME280;47212;41.326;2.104;2023-09-12T14:13:55;101225.47;;;28.49;66.62
61337;BME280;47212;41.326;2.104;2023-09-12T14:19:11;101229.63;;;28.36;66.66
61337;BME280;47212;41.326;2.104;2023-09-12T14:24:14;101209.81;;;28.26;66.43
61337;BME280;47212;41.326;2.104;2023-09-12T14:29:17;101189.19;;;28.14;66.98
61337;BME280;47212;41.326;2.104;2023-09-12T14:34:19;101192.66;;;28.08;67.40
61337;BME280;47212;41.326;2.104;2023-09-12T14:39:22;101187.66;;;27.98;67.51
61337;BME280;47212;41.326;2.104;2023-09-12T14:44:24;101197.78;;;27.83;67.87
61337;BME280;47212;41.326;2.104;2023-09-12T14:49:27;101195.03;;;27.67;68.66
61337;BME280;47212;41.326;2.104;2023-09-12T14:54:30;101192.66;;;27.69;68.59
61337;BME280;47212;41.326;2.104;2023-09-12T14:59:33;101205.03;;;27.68;69.06
61337;BME280;47212;41.326;2.104;2023-09-12T15:04:35;101197.38;;;27.65;69.35
61337;BME280;47212;41.326;2.104;2023-09-12T15:09:37;101187.91;;;27.54;69.28
61337;BME280;47212;41.326;2.104;2023-09-12T15:14:39;101203.72;;;27.46;69.85
61337;BME280;47212;41.326;2.104;2023-09-12T15:19:42;101192.84;;;27.41;69.97
61337;BME280;47212;41.326;2.104;2023-09-12T15:24:44;101131.19;;;27.34;70.27
61337;BME280;47212;41.326;2.104;2023-09-12T15:29:47;101120.66;;;27.27;70.56
61337;BME280;47212;41.326;2.104;2023-09-12T15:34:49;101146.19;;;27.26;71.21
61337;BME280;47212;41.326;2.104;2023-09-12T15:39:51;101148.75;;;27.15;71.69
61337;BME280;47212;41.326;2.104;2023-09-12T15:44:54;101157.75;;;27.09;72.61
61337;BME280;47212;41.326;2.104;2023-09-12T15:50:05;101170.56;;;27.10;73.62
61337;BME280;47212;41.326;2.104;2023-09-12T15:55:10;101202.56;;;27.12;73.92
61337;BME280;47212;41.326;2.104;2023-09-12T16:00:14;101212.66;;;27.01;74.79
61337;BME280;47212;41.326;2.104;2023-09-12T16:05:16;101226.72;;;26.89;74.85
61337;BME280;47212;41.326;2.104;2023-09-12T16:10:19;101253.03;;;26.88;75.33
61337;BME280;47212;41.326;2.104;2023-09-12T16:15:21;101256.78;;;26.80;76.33
61337;BME280;47212;41.326;2.104;2023-09-12T16:20:24;101206.59;;;26.67;77.13
61337;BME280;47212;41.326;2.104;2023-09-12T16:25:26;101166.97;;;26.62;77.69
61337;BME280;47212;41.326;2.104;2023-09-12T16:30:29;101156.53;;;26.59;77.54
61337;BME280;47212;41.326;2.104;2023-09-12T16:35:31;101169.13;;;26.69;77.19
61337;BME280;47212;41.326;2.104;2023-09-12T16:40:36;101176.50;;;26.77;77.57
61337;BME280;47212;41.326;2.104;2023-09-12T16:45:39;101115.22;;;26.84;77.29
61337;BME280;47212;41.326;2.104;2023-09-12T16:50:41;101170.56;;;26.78;77.42
61337;BME280;47212;41.326;2.104;2023-09-12T16:55:43;101207.03;;;26.70;77.15
61337;BME280;47212;41.326;2.104;2023-09-12T17:00:46;101201.38;;;26.66;77.58
61337;BME280;47212;41.326;2.104;2023-09-12T17:05:48;101201.47;;;26.70;76.85
61337;BME280;47212;41.326;2.104;2023-09-12T17:10:50;101202.38;;;26.74;76.48
61337;BME280;47212;41.326;2.104;2023-09-12T17:15:55;101199.56;;;26.74;76.83
61337;BME280;47212;41.326;2.104;2023-09-12T17:20:57;101182.91;;;26.61;77.87
61337;BME280;47212;41.326;2.104;2023-09-12T17:25:59;101189.47;;;26.53;78.01
61337;BME280;47212;41.326;2.104;2023-09-12T17:31:02;101170.56;;;26.47;78.64
61337;BME280;47212;41.326;2.104;2023-09-12T17:36:05;101157.97;;;26.37;78.93
61337;BME280;47212;41.326;2.104;2023-09-12T17:41:08;101156.47;;;26.27;79.30
61337;BME280;47212;41.326;2.104;2023-09-12T17:46:10;101157.91;;;26.21;79.03
61337;BME280;47212;41.326;2.104;2023-09-12T17:51:13;101185.72;;;26.18;79.87
61337;BME280;47212;41.326;2.104;2023-09-12T17:56:15;101180.16;;;26.18;80.07
61337;BME280;47212;41.326;2.104;2023-09-12T18:01:17;101161.25;;;26.11;80.77
61337;BME280;47212;41.326;2.104;2023-09-12T18:06:20;101135.31;;;26.11;80.94
61337;BME280;47212;41.326;2.104;2023-09-12T18:11:23;101120.47;;;26.07;81.51
61337;BME280;47212;41.326;2.104;2023-09-12T18:16:26;101156.00;;;26.10;82.07
61337;BME280;47212;41.326;2.104;2023-09-12T18:21:30;101158.53;;;26.15;82.18
61337;BME280;47212;41.326;2.104;2023-09-12T18:26:33;101157.81;;;26.18;81.98
61337;BME280;47212;41.326;2.104;2023-09-12T18:31:35;101141.53;;;26.20;81.80
61337;BME280;47212;41.326;2.104;2023-09-12T18:36:37;101138.47;;;26.25;81.51
61337;BME280;47212;41.326;2.104;2023-09-12T18:41:40;101172.50;;;26.30;81.49
61337;BME280;47212;41.326;2.104;2023-09-12T18:46:42;101212.06;;;26.32;81.14
61337;BME280;47212;41.326;2.104;2023-09-12T18:51:46;101190.19;;;26.34;81.15
61337;BME280;47212;41.326;2.104;2023-09-12T18:56:49;101194.38;;;26.28;80.03
61337;BME280;47212;41.326;2.104;2023-09-12T19:01:52;101216.25;;;26.26;78.83
61337;BME280;47212;41.326;2.104;2023-09-12T19:06:54;101253.25;;;26.23;77.62
61337;BME280;47212;41.326;2.104;2023-09-12T19:11:57;101260.81;;;26.23;77.03
61337;BME280;47212;41.326;2.104;2023-09-12T19:16:59;101244.06;;;26.23;76.31
61337;BME280;47212;41.326;2.104;2023-09-12T19:22:02;101232.09;;;26.22;76.59
61337;BME280;47212;41.326;2.104;2023-09-12T19:27:04;101247.31;;;26.25;76.35
61337;BME280;47212;41.326;2.104;2023-09-12T19:32:07;101262.53;;;26.27;76.62
61337;BME280;47212;41.326;2.104;2023-09-12T19:37:09;101261.00;;;26.30;76.37
61337;BME280;47212;41.326;2.104;2023-09-12T19:42:11;101251.13;;;26.32;75.88
61337;BME280;47212;41.326;2.104;2023-09-12T19:47:18;101245.19;;;26.34;75.61
61337;BME280;47212;41.326;2.104;2023-09-12T19:52:20;101254.25;;;26.31;74.94
61337;BME280;47212;41.326;2.104;2023-09-12T19:57:25;101275.66;;;26.27;75.09
61337;BME280;47212;41.326;2.104;2023-09-12T20:02:28;101272.06;;;26.26;74.89
61337;BME280;47212;41.326;2.104;2023-09-12T20:07:30;101256.13;;;26.27;73.54
61337;BME280;47212;41.326;2.104;2023-09-12T20:12:32;101254.06;;;26.24;72.00
61337;BME280;47212;41.326;2.104;2023-09-12T20:17:34;101275.94;;;26.22;70.96
61337;BME280;47212;41.326;2.104;2023-09-12T20:22:36;101256.75;;;26.20;70.69
61337;BME280;47212;41.326;2.104;2023-09-12T20:27:38;101267.91;;;26.20;70.76
61337;BME280;47212;41.326;2.104;2023-09-12T20:32:42;101277.44;;;26.19;70.63
61337;BME280;47212;41.326;2.104;2023-09-12T20:37:58;101293.38;;;26.19;71.29
61337;BME280;47212;41.326;2.104;2023-09-12T20:43:00;101296.53;;;26.17;71.69
61337;BME280;47212;41.326;2.104;2023-09-12T20:48:03;101306.06;;;26.16;72.24
61337;BME280;47212;41.326;2.104;2023-09-12T20:53:06;101338.28;;;26.14;73.01
61337;BME280;47212;41.326;2.104;2023-09-12T20:58:09;101348.97;;;26.12;74.21
61337;BME280;47212;41.326;2.104;2023-09-12T21:03:13;101362.47;;;26.10;75.15
61337;BME280;47212;41.326;2.104;2023-09-12T21:08:15;101377.59;;;26.09;75.50
61337;BME280;47212;41.326;2.104;2023-09-12T21:13:18;101380.72;;;26.07;75.88
61337;BME280;47212;41.326;2.104;2023-09-12T21:18:20;101381.06;;;26.06;76.34
61337;BME280;47212;41.326;2.104;2023-09-12T21:23:22;101393.41;;;26.05;76.48
61337;BME280;47212;41.326;2.104;2023-09-12T21:28:24;101404.44;;;26.01;76.79
61337;BME280;47212;41.326;2.104;2023-09-12T21:33:26;101395.25;;;26.00;77.00
61337;BME280;47212;41.326;2.104;2023-09-12T21:38:29;101390.25;;;25.94;77.33
61337;BME280;47212;41.326;2.104;2023-09-12T21:43:31;101393.84;;;25.94;77.46
61337;BME280;47212;41.326;2.104;2023-09-12T21:48:33;101400.13;;;25.91;77.27
61337;BME280;47212;41.326;2.104;2023-09-12T21:53:36;101388.06;;;25.87;77.39
61337;BME280;47212;41.326;2.104;2023-09-12T21:58:38;101384.81;;;25.85;77.74
61337;BME280;47212;41.326;2.104;2023-09-12T22:03:40;101388.75;;;25.84;77.58
61337;BME280;47212;41.326;2.104;2023-09-12T22:08:43;101376.44;;;25.85;77.59
61337;BME280;47212;41.326;2.104;2023-09-12T22:13:45;101389.56;;;25.85;77.21
61337;BME280;47212;41.326;2.104;2023-09-12T22:18:47;101382.38;;;25.84;77.15
61337;BME280;47212;41.326;2.104;2023-09-12T22:23:50;101381.91;;;25.82;76.89
61337;BME280;47212;41.326;2.104;2023-09-12T22:28:52;101381.44;;;25.80;76.76
61337;BME280;47212;41.326;2.104;2023-09-12T22:33:54;101388.53;;;25.77;76.54
61337;BME280;47212;41.326;2.104;2023-09-12T22:38:56;101390.97;;;25.79;76.76
61337;BME280;47212;41.326;2.104;2023-09-12T22:44:00;101384.56;;;25.78;76.83
61337;BME280;47212;41.326;2.104;2023-09-12T22:49:03;101390.16;;;25.78;76.74
61337;BME280;47212;41.326;2.104;2023-09-12T22:54:06;101390.63;;;25.80;76.52
61337;BME280;47212;41.326;2.104;2023-09-12T22:59:08;101392.94;;;25.78;76.22
61337;BME280;47212;41.326;2.104;2023-09-12T23:04:10;101389.69;;;25.76;76.21
61337;BME280;47212;41.326;2.104;2023-09-12T23:09:12;101387.72;;;25.77;75.95
61337;BME280;47212;41.326;2.104;2023-09-12T23:14:14;101375.75;;;25.76;74.93
61337;BME280;47212;41.326;2.104;2023-09-12T23:19:17;101383.66;;;25.74;74.60
61337;BME280;47212;41.326;2.104;2023-09-12T23:24:19;101381.22;;;25.73;74.27
61337;BME280;47212;41.326;2.104;2023-09-12T23:29:21;101371.56;;;25.70;74.21
61337;BME280;47212;41.326;2.104;2023-09-12T23:34:23;101374.25;;;25.66;74.10
61337;BME280;47212;41.326;2.104;2023-09-12T23:39:26;101380.03;;;25.61;74.35
61337;BME280;47212;41.326;2.104;2023-09-12T23:44:28;101381.53;;;25.59;74.43
61337;BME280;47212;41.326;2.104;2023-09-12T23:49:31;101369.44;;;25.55;74.40
61337;BME280;47212;41.326;2.104;2023-09-12T23:54:33;101359.00;;;25.52;74.38
61337;BME280;47212;41.326;2.104;2023-09-12T23:59:36;101360.41;;;25.46;74.28
